createdAt,value
2023-04-01T00:02:01.908Z,5.82
2023-04-01T00:06:54.027Z,4.82
2023-04-01T00:11:46.676Z,4.47
2023-04-01T00:16:39.179Z,5.22
2023-04-01T00:21:31.316Z,6.20
2023-04-01T00:26:23.610Z,7.45
2023-04-01T00:31:15.757Z,8.30
2023-04-01T00:36:12.941Z,8.10
2023-04-01T00:41:06.336Z,8.07
2023-04-01T00:45:59.001Z,8.20
2023-04-01T00:50:56.001Z,7.82
2023-04-01T00:55:56.557Z,8.07
2023-04-01T01:00:50.508Z,6.47
2023-04-01T01:05:58.686Z,6.18
2023-04-01T01:10:51.604Z,5.03
2023-04-01T01:15:53.156Z,4.32
2023-04-01T01:21:23.148Z,3.40
2023-04-01T01:26:46.186Z,2.92
2023-04-01T01:31:39.264Z,2.72
2023-04-01T01:36:38.218Z,2.70
2023-04-01T01:41:33.925Z,2.70
2023-04-01T01:46:28.811Z,2.65
2023-04-01T01:51:23.034Z,2.53
2023-04-01T01:56:15.350Z,2.42
2023-04-01T02:01:32.346Z,2.83
2023-04-01T02:06:36.099Z,2.72
2023-04-01T02:11:40.346Z,2.33
2023-04-01T02:16:50.510Z,2.47
2023-04-01T02:21:43.756Z,2.33
2023-04-01T02:26:36.195Z,2.42
2023-04-01T02:31:29.094Z,2.30
2023-04-01T02:36:21.451Z,2.55
2023-04-01T02:41:14.063Z,2.67
2023-04-01T02:46:05.904Z,2.63
2023-04-01T02:50:57.923Z,3.38
2023-04-01T02:55:51.738Z,2.92
2023-04-01T03:00:43.827Z,2.90
2023-04-01T03:05:36.062Z,3.22
2023-04-01T03:10:28.238Z,3.45
2023-04-01T03:15:20.116Z,3.88
2023-04-01T03:20:12.463Z,3.83
2023-04-01T03:25:06.129Z,3.67
2023-04-01T03:29:58.012Z,4.22
2023-04-01T03:34:49.859Z,4.65
2023-04-01T03:39:44.457Z,5.25
2023-04-01T03:44:36.857Z,5.88
2023-04-01T03:49:29.139Z,6.63
2023-04-01T03:54:21.329Z,7.00
2023-04-01T03:59:13.977Z,6.35
2023-04-01T04:04:05.868Z,5.88
2023-04-01T04:08:57.942Z,6.30
2023-04-01T04:13:49.962Z,5.18
2023-04-01T04:18:41.825Z,4.50
2023-04-01T04:23:34.855Z,5.85
2023-04-01T04:28:28.507Z,6.43
2023-04-01T04:33:23.770Z,5.55
2023-04-01T04:38:16.198Z,6.28
2023-04-01T04:43:12.512Z,7.20
2023-04-01T04:48:04.945Z,6.97
2023-04-01T04:52:57.958Z,8.00
2023-04-01T04:57:49.857Z,8.93
2023-04-01T05:02:41.842Z,9.02
2023-04-01T05:07:34.596Z,9.40
2023-04-01T05:12:26.510Z,10.73
2023-04-01T05:17:25.221Z,9.38
2023-04-01T05:22:17.695Z,9.68
2023-04-01T05:27:09.779Z,10.25
2023-04-01T05:32:04.751Z,9.50
2023-04-01T05:36:56.916Z,8.65
2023-04-01T05:41:48.773Z,8.82
2023-04-01T05:46:40.759Z,10.60
2023-04-01T05:51:50.460Z,10.90
2023-04-01T05:56:42.208Z,11.55
2023-04-01T06:01:34.085Z,12.30
2023-04-01T06:06:29.031Z,10.95
2023-04-01T06:12:05.973Z,11.02
2023-04-01T06:17:12.520Z,13.48
2023-04-01T06:22:21.128Z,12.40
2023-04-01T06:27:51.163Z,12.52
2023-04-01T06:32:52.485Z,12.55
2023-04-01T06:38:10.625Z,11.70
2023-04-01T06:43:14.188Z,12.20
2023-04-01T06:49:07.573Z,9.93
2023-04-01T06:54:25.469Z,8.05
2023-04-01T06:59:38.560Z,7.32
2023-04-01T07:04:39.457Z,5.32
2023-04-01T07:09:40.686Z,4.28
2023-04-01T07:14:54.596Z,3.55
2023-04-01T07:19:58.956Z,3.65
2023-04-01T07:24:51.534Z,3.53
2023-04-01T07:29:43.670Z,3.58
2023-04-01T07:34:52.017Z,4.18
2023-04-01T07:39:50.458Z,4.28
2023-04-01T07:44:51.766Z,4.82
2023-04-01T07:50:17.802Z,6.25
2023-04-01T07:55:27.333Z,6.05
2023-04-01T08:00:31.366Z,6.22
2023-04-01T08:05:51.719Z,7.22
2023-04-01T08:11:15.602Z,6.90
2023-04-01T08:16:45.150Z,6.72
2023-04-01T08:21:48.487Z,6.93
2023-04-01T08:26:46.567Z,5.97
2023-04-01T08:32:04.580Z,6.15
2023-04-01T08:37:02.544Z,4.80
2023-04-01T08:42:12.841Z,4.80
2023-04-01T08:47:56.606Z,5.47
2023-04-01T08:53:13.587Z,8.52
2023-04-01T08:58:26.151Z,8.55
2023-04-01T09:04:04.443Z,9.00
2023-04-01T09:09:17.118Z,9.85
2023-04-01T09:14:28.502Z,9.57
2023-04-01T09:19:47.619Z,10.88
2023-04-01T09:25:08.827Z,10.25
2023-04-01T09:30:34.269Z,10.68
2023-04-01T09:35:51.624Z,13.60
2023-04-01T09:41:13.397Z,10.82
2023-04-01T09:46:54.541Z,11.85
2023-04-01T09:51:53.506Z,9.55
2023-04-01T09:56:57.672Z,8.75
2023-04-01T10:02:23.186Z,9.10
2023-04-01T10:07:29.539Z,8.80
2023-04-01T10:12:33.631Z,8.38
2023-04-01T10:18:04.464Z,7.55
2023-04-01T10:23:11.305Z,7.47
2023-04-01T10:28:36.815Z,6.28
2023-04-01T10:33:46.602Z,5.35
2023-04-01T10:39:18.502Z,4.90
2023-04-01T10:44:35.344Z,2.92
2023-04-01T10:49:47.751Z,2.45
2023-04-01T10:54:50.748Z,1.52
2023-04-01T11:00:34.882Z,1.60
2023-04-01T11:06:05.350Z,0.82
2023-04-01T11:11:12.659Z,0.30
2023-04-01T11:16:35.778Z,0.35
2023-04-01T11:21:34.701Z,0.40
2023-04-01T11:26:49.124Z,0.60
2023-04-01T11:32:16.445Z,0.32
2023-04-01T11:37:20.577Z,0.20
2023-04-01T11:42:59.139Z,0.20
2023-04-01T11:48:44.930Z,0.28
2023-04-01T11:53:54.309Z,0.40
2023-04-01T11:58:58.444Z,0.33
2023-04-01T12:04:21.441Z,0.20
2023-04-01T12:09:29.773Z,0.45
2023-04-01T12:14:40.456Z,0.32
2023-04-01T12:19:44.754Z,0.43
2023-04-01T12:24:54.989Z,0.40
2023-04-01T12:30:24.325Z,0.30
2023-04-01T12:35:22.208Z,0.38
2023-04-01T12:40:42.035Z,0.22
2023-04-01T12:45:37.337Z,0.47
2023-04-01T12:50:32.058Z,0.15
2023-04-01T12:55:36.296Z,0.30
2023-04-01T13:00:56.458Z,0.10
2023-04-01T13:06:06.158Z,0.20
2023-04-01T13:11:14.667Z,0.30
2023-04-01T13:16:12.902Z,0.40
2023-04-01T13:21:29.438Z,0.35
2023-04-01T13:26:47.537Z,0.55
2023-04-01T13:31:56.904Z,0.50
2023-04-01T13:37:16.482Z,0.40
2023-04-01T13:42:20.310Z,0.38
2023-04-01T13:47:22.223Z,0.40
2023-04-01T13:52:27.629Z,0.57
2023-04-01T13:57:48.543Z,0.50
2023-04-01T14:02:52.069Z,0.60
2023-04-01T14:07:47.732Z,0.30
2023-04-01T14:12:50.179Z,0.30
2023-04-01T14:17:51.702Z,0.20
2023-04-01T14:22:52.411Z,0.40
2023-04-01T14:28:08.386Z,0.28
2023-04-01T14:33:06.243Z,0.35
2023-04-01T14:38:41.193Z,0.20
2023-04-01T14:44:07.080Z,0.30
2023-04-01T14:49:03.118Z,0.40
2023-04-01T14:54:23.850Z,0.40
2023-04-01T14:59:28.968Z,0.47
2023-04-01T15:04:27.824Z,0.40
2023-04-01T15:10:00.514Z,0.35
2023-04-01T15:14:58.216Z,0.47
2023-04-01T15:20:14.709Z,0.67
2023-04-01T15:25:29.473Z,0.65
2023-04-01T15:30:46.008Z,0.60
2023-04-01T15:36:09.022Z,0.50
2023-04-01T15:41:58.420Z,0.50
2023-04-01T15:46:51.344Z,0.30
2023-04-01T15:51:57.540Z,0.45
2023-04-01T15:56:55.577Z,0.30
2023-04-01T16:02:02.434Z,0.40
2023-04-01T16:07:10.357Z,0.47
2023-04-01T16:12:07.704Z,0.60
2023-04-01T16:17:18.056Z,0.65
2023-04-01T16:22:15.870Z,0.93
2023-04-01T16:27:26.205Z,0.50
2023-04-01T16:32:32.990Z,0.55
2023-04-01T16:37:38.710Z,0.50
2023-04-01T16:42:51.970Z,0.60
2023-04-01T16:47:51.682Z,0.50
2023-04-01T16:53:01.113Z,0.85
2023-04-01T16:57:57.619Z,0.60
2023-04-01T17:03:18.602Z,0.90
2023-04-01T17:08:44.226Z,0.82
2023-04-01T17:13:45.697Z,0.82
2023-04-01T17:19:01.836Z,1.17
2023-04-01T17:24:18.837Z,1.80
2023-04-01T17:29:30.310Z,1.65
2023-04-01T17:34:45.836Z,1.33
2023-04-01T17:39:46.491Z,1.30
2023-04-01T17:44:41.439Z,1.65
2023-04-01T17:49:55.231Z,1.45
2023-04-01T17:54:56.342Z,1.15
2023-04-01T18:00:15.731Z,1.40
2023-04-01T18:05:39.949Z,1.83
2023-04-01T18:10:49.772Z,1.10
2023-04-01T18:16:02.954Z,1.23
2023-04-01T18:21:35.556Z,1.67
2023-04-01T18:26:52.447Z,1.10
2023-04-01T18:31:49.165Z,2.38
2023-04-01T18:36:56.619Z,2.60
2023-04-01T18:42:09.467Z,1.65
2023-04-01T18:47:31.382Z,2.15
2023-04-01T18:52:45.946Z,1.65
2023-04-01T18:57:51.420Z,1.48
2023-04-01T19:02:50.707Z,1.30
2023-04-01T19:07:49.508Z,1.15
2023-04-01T19:12:59.857Z,1.55
2023-04-01T19:18:25.485Z,1.50
2023-04-01T19:23:50.653Z,1.40
2023-04-01T19:29:03.862Z,1.52
2023-04-01T19:34:20.156Z,1.25
2023-04-01T19:39:30.377Z,1.90
2023-04-01T19:44:43.899Z,1.50
2023-04-01T19:49:53.667Z,1.40
2023-04-01T19:55:13.230Z,1.98
2023-04-01T20:00:34.319Z,1.35
2023-04-01T20:05:32.465Z,1.45
2023-04-01T20:10:36.693Z,1.40
2023-04-01T20:15:38.949Z,1.30
2023-04-01T20:20:31.806Z,1.58
2023-04-01T20:25:39.483Z,1.50
2023-04-01T20:30:52.965Z,2.10
2023-04-01T20:36:22.104Z,1.95
2023-04-01T20:41:35.754Z,1.30
2023-04-01T20:46:46.902Z,1.60
2023-04-01T20:51:44.395Z,1.30
2023-04-01T20:56:41.600Z,1.40
2023-04-01T21:01:48.228Z,1.42
2023-04-01T21:06:46.904Z,3.17
2023-04-01T21:11:45.622Z,2.22
2023-04-01T21:16:58.662Z,1.67
2023-04-01T21:22:02.248Z,1.90
2023-04-01T21:27:00.886Z,1.70
2023-04-01T21:32:31.550Z,1.50
2023-04-01T21:37:38.464Z,1.40
2023-04-01T21:42:38.992Z,2.50
2023-04-01T21:47:48.797Z,1.98
2023-04-01T21:53:12.381Z,1.75
2023-04-01T21:58:15.559Z,1.20
2023-04-01T22:03:27.335Z,1.52
2023-04-01T22:08:35.018Z,2.60
2023-04-01T22:14:07.880Z,2.10
2023-04-01T22:19:23.258Z,1.20
2023-04-01T22:24:31.585Z,1.75
2023-04-01T22:29:38.543Z,1.83
2023-04-01T22:35:04.096Z,1.65
2023-04-01T22:40:28.825Z,2.13
2023-04-01T22:45:26.525Z,1.65
2023-04-01T22:50:27.426Z,2.00
2023-04-01T22:55:24.701Z,1.65
2023-04-01T23:00:23.980Z,1.67
2023-04-01T23:05:19.691Z,2.05
2023-04-01T23:10:19.333Z,1.80
2023-04-01T23:15:15.223Z,1.67
2023-04-01T23:20:27.432Z,1.92
2023-04-01T23:25:22.071Z,1.80
2023-04-01T23:30:41.864Z,1.90
2023-04-01T23:35:33.843Z,1.67
2023-04-01T23:40:27.466Z,1.58
2023-04-01T23:45:21.969Z,1.75
2023-04-01T23:50:26.734Z,1.20
2023-04-01T23:55:23.041Z,1.55
